createdAt,value
2018-05-09T00:00:13.450Z,0
2018-05-09T00:00:53.958Z,0
2018-05-09T00:01:34.429Z,0
2018-05-09T00:02:14.923Z,0
2018-05-09T00:02:55.409Z,0
2018-05-09T00:03:35.871Z,0
2018-05-09T00:04:16.356Z,0
2018-05-09T00:04:56.890Z,0
2018-05-09T00:05:37.383Z,0
2018-05-09T00:06:17.862Z,0
2018-05-09T00:06:58.317Z,0
2018-05-09T00:07:38.851Z,0
2018-05-09T00:08:19.328Z,0
2018-05-09T00:08:59.824Z,0
2018-05-09T00:09:40.315Z,0
2018-05-09T00:10:20.831Z,0
2018-05-09T00:11:01.323Z,0
2018-05-09T00:11:41.786Z,0
2018-05-09T00:12:22.281Z,0
2018-05-09T00:13:02.754Z,0
2018-05-09T00:13:43.254Z,0
2018-05-09T00:14:23.760Z,0
2018-05-09T00:15:04.239Z,0
2018-05-09T00:15:44.729Z,0
2018-05-09T00:16:25.230Z,0
2018-05-09T00:17:05.700Z,0
2018-05-09T00:17:46.213Z,0
2018-05-09T00:18:26.723Z,0
2018-05-09T00:19:07.184Z,0
2018-05-09T00:19:47.686Z,0
2018-05-09T00:20:28.170Z,0
2018-05-09T00:21:08.715Z,0
2018-05-09T00:21:49.176Z,0
2018-05-09T00:22:29.659Z,0
2018-05-09T00:23:10.164Z,0
2018-05-09T00:23:50.647Z,0
2018-05-09T00:24:31.149Z,0
2018-05-09T00:25:11.643Z,0
2018-05-09T00:25:52.100Z,0
2018-05-09T00:26:32.591Z,0
2018-05-09T00:27:13.062Z,0
2018-05-09T00:27:53.583Z,0
2018-05-09T00:28:34.088Z,0
2018-05-09T00:29:14.580Z,0
2018-05-09T00:29:55.033Z,0
2018-05-09T00:30:35.530Z,0
2018-05-09T00:31:16.036Z,0
2018-05-09T00:31:56.528Z,0
2018-05-09T00:32:36.994Z,0
2018-05-09T00:33:17.542Z,0
2018-05-09T00:33:57.975Z,0
2018-05-09T00:34:38.498Z,0
2018-05-09T00:35:18.988Z,0
2018-05-09T00:35:59.480Z,0
2018-05-09T00:36:39.942Z,0
2018-05-09T00:37:20.419Z,0
2018-05-09T00:38:00.926Z,0
2018-05-09T00:38:41.404Z,0
2018-05-09T00:39:21.853Z,0
2018-05-09T00:40:02.330Z,0
2018-05-09T00:40:42.837Z,0
2018-05-09T00:41:23.344Z,0
2018-05-09T00:42:03.782Z,0
2018-05-09T00:42:44.281Z,0
2018-05-09T00:43:24.785Z,0
2018-05-09T00:44:05.264Z,0
2018-05-09T00:44:45.775Z,0
2018-05-09T00:45:26.275Z,0
2018-05-09T00:46:06.769Z,0
2018-05-09T00:46:47.265Z,0
2018-05-09T00:47:27.728Z,0
2018-05-09T00:48:08.266Z,0
2018-05-09T00:48:48.709Z,0
2018-05-09T00:49:29.198Z,0
2018-05-09T00:50:09.723Z,0
2018-05-09T00:50:50.204Z,0
2018-05-09T00:51:30.674Z,0
2018-05-09T00:52:11.194Z,0
2018-05-09T00:52:51.667Z,0
2018-05-09T00:53:32.163Z,0
2018-05-09T00:54:12.629Z,0
2018-05-09T00:54:53.136Z,0
2018-05-09T00:55:33.602Z,0
2018-05-09T00:56:14.107Z,0
2018-05-09T00:56:54.591Z,0
2018-05-09T00:57:35.113Z,0
2018-05-09T00:58:15.577Z,0
2018-05-09T00:58:56.056Z,0
2018-05-09T00:59:36.582Z,0
2018-05-09T01:00:17.072Z,0
2018-05-09T01:00:57.539Z,0
2018-05-09T01:01:38.054Z,0
2018-05-09T01:02:18.550Z,0
2018-05-09T01:02:59.049Z,0
2018-05-09T01:03:39.555Z,0
2018-05-09T01:04:20.034Z,0
2018-05-09T01:05:00.541Z,0
2018-05-09T01:05:41.029Z,0
2018-05-09T01:06:21.529Z,0
2018-05-09T01:07:02.019Z,0
2018-05-09T01:07:42.498Z,0
2018-05-09T01:08:23.019Z,0
2018-05-09T01:09:03.546Z,0
2018-05-09T01:09:43.993Z,0
2018-05-09T01:10:24.471Z,0
2018-05-09T01:11:04.946Z,0
2018-05-09T01:11:45.453Z,0
2018-05-09T01:12:25.952Z,0
2018-05-09T01:13:06.424Z,0
2018-05-09T01:13:46.921Z,0
2018-05-09T01:14:27.412Z,0
2018-05-09T01:15:07.944Z,0
2018-05-09T01:15:48.437Z,0
2018-05-09T01:16:28.898Z,0
2018-05-09T01:17:09.422Z,0
2018-05-09T01:17:49.926Z,0
2018-05-09T01:18:30.391Z,0
2018-05-09T01:19:10.890Z,0
2018-05-09T01:19:51.368Z,0
2018-05-09T01:20:31.864Z,0
2018-05-09T01:21:12.347Z,0
2018-05-09T01:21:52.819Z,0
2018-05-09T01:22:33.289Z,0
2018-05-09T01:23:13.768Z,0
2018-05-09T01:23:54.278Z,0
2018-05-09T01:24:34.796Z,0
2018-05-09T01:25:15.245Z,0
2018-05-09T01:25:55.771Z,0
2018-05-09T01:26:36.259Z,0
2018-05-09T01:27:16.741Z,0
2018-05-09T01:27:57.276Z,0
2018-05-09T01:28:37.764Z,0
2018-05-09T01:29:18.260Z,0
2018-05-09T01:29:58.707Z,0
2018-05-09T01:30:39.194Z,0
2018-05-09T01:31:19.721Z,0
2018-05-09T01:32:00.187Z,0
2018-05-09T01:32:40.677Z,0
2018-05-09T01:33:21.175Z,0
2018-05-09T01:34:01.673Z,0
2018-05-09T01:34:42.178Z,0
2018-05-09T01:35:22.671Z,0
2018-05-09T01:36:03.117Z,0
2018-05-09T01:36:43.633Z,0
2018-05-09T01:37:24.148Z,0
2018-05-09T01:38:04.653Z,0
2018-05-09T01:38:45.161Z,0
2018-05-09T01:39:25.700Z,0
2018-05-09T01:40:06.135Z,0
2018-05-09T01:40:46.633Z,0
2018-05-09T01:41:27.188Z,0
2018-05-09T01:42:07.616Z,0
2018-05-09T01:42:48.126Z,0
2018-05-09T01:43:28.584Z,0
2018-05-09T01:44:09.117Z,0
2018-05-09T01:44:49.545Z,0
2018-05-09T01:45:30.063Z,0
2018-05-09T01:46:10.557Z,0
2018-05-09T01:46:51.024Z,0
2018-05-09T01:47:31.487Z,0
2018-05-09T01:48:11.996Z,0
2018-05-09T01:48:52.511Z,0
2018-05-09T01:49:32.990Z,0
2018-05-09T01:50:13.509Z,0
2018-05-09T01:50:54.005Z,0
2018-05-09T01:51:34.482Z,0
2018-05-09T01:52:15.099Z,0
2018-05-09T01:52:55.467Z,0
2018-05-09T01:53:35.965Z,0
2018-05-09T01:54:16.465Z,0
2018-05-09T01:54:56.987Z,0
2018-05-09T01:55:37.442Z,0
2018-05-09T01:56:17.920Z,0
2018-05-09T01:56:58.453Z,0
2018-05-09T01:57:38.923Z,0
2018-05-09T01:58:19.430Z,0
2018-05-09T01:58:59.884Z,0
2018-05-09T01:59:40.400Z,0
2018-05-09T02:00:20.875Z,0
2018-05-09T02:01:01.375Z,0
2018-05-09T02:01:41.855Z,0
2018-05-09T02:02:22.364Z,0
2018-05-09T02:03:02.808Z,0
2018-05-09T02:03:43.324Z,0
2018-05-09T02:04:23.794Z,0
2018-05-09T02:05:04.285Z,0
2018-05-09T02:05:44.799Z,0
2018-05-09T02:06:25.281Z,0
2018-05-09T02:07:05.749Z,0
2018-05-09T02:07:46.275Z,0
2018-05-09T02:08:26.768Z,0
2018-05-09T02:09:07.230Z,0
2018-05-09T02:09:47.728Z,0
2018-05-09T02:10:28.151Z,0
2018-05-09T02:11:08.676Z,0
2018-05-09T02:11:49.147Z,0
2018-05-09T02:12:29.638Z,0
2018-05-09T02:13:10.136Z,0
2018-05-09T02:13:50.616Z,0
2018-05-09T02:14:31.101Z,0
2018-05-09T02:15:11.560Z,0
2018-05-09T02:15:52.041Z,0
2018-05-09T02:16:32.540Z,0
2018-05-09T02:17:13.049Z,0
2018-05-09T02:17:53.526Z,0
2018-05-09T02:18:34.040Z,0
2018-05-09T02:19:14.476Z,0
2018-05-09T02:19:54.979Z,0
2018-05-09T02:20:35.452Z,0
2018-05-09T02:21:16.005Z,0
2018-05-09T02:21:56.461Z,0
2018-05-09T02:22:36.963Z,0
2018-05-09T02:23:17.478Z,0
2018-05-09T02:23:58.003Z,0
2018-05-09T02:24:38.473Z,0
2018-05-09T02:25:18.915Z,0
2018-05-09T02:25:59.392Z,0
2018-05-09T02:26:39.864Z,0
2018-05-09T02:27:20.360Z,0
2018-05-09T02:28:00.831Z,0
2018-05-09T02:28:41.355Z,0
2018-05-09T02:29:21.834Z,0
2018-05-09T02:30:02.329Z,0
2018-05-09T02:30:42.806Z,0
2018-05-09T02:31:23.309Z,0
2018-05-09T02:32:03.801Z,0
2018-05-09T02:32:44.299Z,0
2018-05-09T02:33:24.833Z,0
2018-05-09T02:34:05.341Z,0
2018-05-09T02:34:45.794Z,0
2018-05-09T02:35:26.330Z,0
2018-05-09T02:36:06.790Z,0
2018-05-09T02:36:47.305Z,0
2018-05-09T02:37:27.809Z,0
2018-05-09T02:38:08.297Z,0
2018-05-09T02:38:48.766Z,0
2018-05-09T02:39:29.271Z,0
2018-05-09T02:40:09.776Z,0
2018-05-09T02:40:50.259Z,0
2018-05-09T02:41:30.739Z,0
2018-05-09T02:42:11.256Z,0
2018-05-09T02:42:51.795Z,0
2018-05-09T02:43:32.258Z,0
2018-05-09T02:44:12.769Z,0
2018-05-09T02:44:53.267Z,0
2018-05-09T02:45:33.728Z,0
2018-05-09T02:46:14.204Z,0
2018-05-09T02:46:54.710Z,0
2018-05-09T02:47:35.149Z,0
2018-05-09T02:48:15.659Z,0
2018-05-09T02:48:56.130Z,0
2018-05-09T02:49:36.592Z,0
2018-05-09T02:50:17.079Z,0
2018-05-09T02:50:57.553Z,0
2018-05-09T02:51:38.062Z,0
2018-05-09T02:52:18.560Z,0
2018-05-09T02:52:59.084Z,0
2018-05-09T02:53:39.586Z,0
2018-05-09T02:54:20.051Z,0
2018-05-09T02:55:00.557Z,0
2018-05-09T02:55:41.077Z,0
2018-05-09T02:56:21.529Z,0
2018-05-09T02:57:02.088Z,0
2018-05-09T02:57:42.524Z,0
2018-05-09T02:58:23.035Z,0
2018-05-09T02:59:03.519Z,0
2018-05-09T02:59:43.986Z,0
2018-05-09T03:00:24.469Z,0
2018-05-09T03:01:04.956Z,0
2018-05-09T03:01:45.427Z,0
2018-05-09T03:02:25.907Z,0
2018-05-09T03:03:06.407Z,0
2018-05-09T03:03:46.915Z,0
2018-05-09T03:04:27.443Z,0
2018-05-09T03:05:07.885Z,0
2018-05-09T03:05:48.380Z,0
2018-05-09T03:06:28.934Z,0
2018-05-09T03:07:09.371Z,0
2018-05-09T03:07:49.860Z,0
2018-05-09T03:08:30.339Z,0
2018-05-09T03:09:10.839Z,0
2018-05-09T03:09:51.347Z,0
2018-05-09T03:10:31.831Z,0
2018-05-09T03:11:12.321Z,0
2018-05-09T03:11:52.819Z,0
2018-05-09T03:12:33.308Z,0
2018-05-09T03:13:13.770Z,0
2018-05-09T03:13:54.276Z,0
2018-05-09T03:14:34.757Z,0
2018-05-09T03:15:15.279Z,0
2018-05-09T03:15:55.758Z,0
2018-05-09T03:16:36.226Z,0
2018-05-09T03:17:16.704Z,0
2018-05-09T03:17:57.223Z,0
2018-05-09T03:18:37.715Z,0
2018-05-09T03:19:18.208Z,0
2018-05-09T03:19:58.693Z,0
2018-05-09T03:20:39.211Z,0
2018-05-09T03:21:19.672Z,0
2018-05-09T03:22:00.197Z,0
2018-05-09T03:22:40.692Z,0
2018-05-09T03:23:21.166Z,0
2018-05-09T03:24:01.647Z,0
2018-05-09T03:24:42.127Z,0
2018-05-09T03:25:22.633Z,0
2018-05-09T03:26:03.100Z,0
2018-05-09T03:26:43.585Z,0
2018-05-09T03:27:24.104Z,0
2018-05-09T03:28:04.587Z,0
2018-05-09T03:28:45.050Z,0
2018-05-09T03:29:25.607Z,0
2018-05-09T03:30:06.055Z,0
2018-05-09T03:30:46.537Z,0
2018-05-09T03:31:27.043Z,0
2018-05-09T03:32:07.533Z,0
2018-05-09T03:32:48.028Z,0
2018-05-09T03:33:28.508Z,0
2018-05-09T03:34:08.971Z,0
2018-05-09T03:34:49.535Z,0
2018-05-09T03:35:29.986Z,0
2018-05-09T03:36:10.476Z,0
2018-05-09T03:36:50.934Z,0
2018-05-09T03:37:31.447Z,0
2018-05-09T03:38:11.925Z,0
2018-05-09T03:38:52.418Z,0
2018-05-09T03:39:32.904Z,0
2018-05-09T03:40:13.442Z,0
2018-05-09T03:40:53.907Z,0
2018-05-09T03:41:34.373Z,0
2018-05-09T03:42:14.852Z,0
2018-05-09T03:42:55.363Z,0
2018-05-09T03:43:35.842Z,0
2018-05-09T03:44:16.309Z,0
2018-05-09T03:44:56.824Z,0
2018-05-09T03:45:37.304Z,0
2018-05-09T03:46:17.851Z,0
2018-05-09T03:46:58.331Z,0
2018-05-09T03:47:38.813Z,0
2018-05-09T03:48:20.146Z,0
2018-05-09T03:48:59.759Z,0
2018-05-09T03:49:41.022Z,5
2018-05-09T03:50:22.154Z,5
2018-05-09T03:51:02.645Z,5
2018-05-09T03:51:42.574Z,5
2018-05-09T03:52:25.154Z,5
2018-05-09T03:53:05.146Z,5
2018-05-09T03:53:47.347Z,5
2018-05-09T03:54:29.645Z,5
2018-05-09T03:55:09.214Z,5
2018-05-09T03:55:49.721Z,5
2018-05-09T03:56:32.158Z,5
2018-05-09T03:57:13.422Z,5
2018-05-09T03:57:54.809Z,5
2018-05-09T03:58:35.315Z,5
2018-05-09T03:59:15.810Z,5
2018-05-09T03:59:56.279Z,10
2018-05-09T04:00:36.760Z,10
2018-05-09T04:01:17.277Z,10
2018-05-09T04:01:57.748Z,10
2018-05-09T04:02:38.248Z,10
2018-05-09T04:03:18.759Z,10
2018-05-09T04:03:59.900Z,10
2018-05-09T04:04:40.385Z,10
2018-05-09T04:05:20.913Z,10
2018-05-09T04:06:02.143Z,10
2018-05-09T04:06:42.607Z,10
2018-05-09T04:07:23.662Z,15
2018-05-09T04:08:04.530Z,15
2018-05-09T04:08:45.038Z,15
2018-05-09T04:09:25.517Z,15
2018-05-09T04:10:06.008Z,15
2018-05-09T04:10:46.480Z,15
2018-05-09T04:11:26.990Z,15
2018-05-09T04:12:07.461Z,20
2018-05-09T04:12:47.940Z,20
2018-05-09T04:13:28.435Z,20
2018-05-09T04:14:08.944Z,20
2018-05-09T04:14:49.480Z,25
2018-05-09T04:15:29.879Z,25
2018-05-09T04:16:10.526Z,25
2018-05-09T04:16:50.896Z,25
2018-05-09T04:17:31.390Z,30
2018-05-09T04:18:11.893Z,30
2018-05-09T04:18:52.395Z,30
2018-05-09T04:19:32.927Z,30
2018-05-09T04:20:13.428Z,35
2018-05-09T04:20:53.844Z,35
2018-05-09T04:21:34.334Z,35
2018-05-09T04:22:14.804Z,35
2018-05-09T04:22:55.329Z,40
2018-05-09T04:23:35.792Z,40
2018-05-09T04:24:16.316Z,40
2018-05-09T04:24:56.794Z,40
2018-05-09T04:25:37.270Z,40
2018-05-09T04:26:17.776Z,45
2018-05-09T04:26:58.240Z,45
2018-05-09T04:27:38.748Z,45
2018-05-09T04:28:19.286Z,45
2018-05-09T04:28:59.757Z,45
2018-05-09T04:29:40.211Z,50
2018-05-09T04:30:20.667Z,50
2018-05-09T04:31:01.174Z,50
2018-05-09T04:31:41.652Z,50
2018-05-09T04:32:22.151Z,55
2018-05-09T04:33:02.654Z,55
2018-05-09T04:33:43.125Z,55
2018-05-09T04:34:23.630Z,55
2018-05-09T04:35:04.107Z,55
2018-05-09T04:35:44.608Z,60
2018-05-09T04:36:25.101Z,60
2018-05-09T04:37:05.598Z,60
2018-05-09T04:37:46.091Z,60
2018-05-09T04:38:26.617Z,65
2018-05-09T04:39:07.110Z,65
2018-05-09T04:39:48.865Z,65
2018-05-09T04:40:29.535Z,65
2018-05-09T04:41:10.040Z,70
2018-05-09T04:41:50.548Z,70
2018-05-09T04:42:30.995Z,70
2018-05-09T04:43:11.472Z,70
2018-05-09T04:43:51.982Z,70
2018-05-09T04:44:32.446Z,75
2018-05-09T04:45:12.965Z,70
2018-05-09T04:45:53.487Z,75
2018-05-09T04:46:34.006Z,75
2018-05-09T04:47:14.512Z,75
2018-05-09T04:47:54.985Z,75
2018-05-09T04:48:35.498Z,80
2018-05-09T04:49:16.077Z,80
2018-05-09T04:49:56.480Z,80
2018-05-09T04:50:36.986Z,80
2018-05-09T04:51:17.449Z,85
2018-05-09T04:51:57.957Z,85
2018-05-09T04:52:38.454Z,85
2018-05-09T04:53:18.972Z,90
2018-05-09T04:53:59.458Z,90
2018-05-09T04:54:39.977Z,90
2018-05-09T04:55:20.572Z,90
2018-05-09T04:56:00.989Z,90
2018-05-09T04:56:41.477Z,90
2018-05-09T04:57:22.041Z,90
2018-05-09T04:58:02.508Z,90
2018-05-09T04:58:43.013Z,90
2018-05-09T04:59:23.496Z,100
2018-05-09T05:00:04.018Z,105
2018-05-09T05:00:44.479Z,115
2018-05-09T05:01:24.975Z,105
2018-05-09T05:02:05.481Z,95
2018-05-09T05:02:45.987Z,95
2018-05-09T05:03:26.471Z,95
2018-05-09T05:04:07.014Z,95
2018-05-09T05:04:47.499Z,100
2018-05-09T05:05:27.977Z,100
2018-05-09T05:06:08.498Z,95
2018-05-09T05:06:48.958Z,95
2018-05-09T05:07:29.442Z,95
2018-05-09T05:08:09.918Z,95
2018-05-09T05:08:50.460Z,95
2018-05-09T05:09:30.954Z,100
2018-05-09T05:10:11.508Z,100
2018-05-09T05:10:51.967Z,100
2018-05-09T05:11:32.585Z,100
2018-05-09T05:12:13.058Z,100
2018-05-09T05:12:53.579Z,100
2018-05-09T05:13:34.096Z,100
2018-05-09T05:14:14.544Z,100
2018-05-09T05:14:55.148Z,100
2018-05-09T05:15:35.679Z,100
2018-05-09T05:16:16.103Z,105
2018-05-09T05:16:56.619Z,105
2018-05-09T05:17:37.123Z,105
2018-05-09T05:18:17.684Z,105
2018-05-09T05:18:58.177Z,105
2018-05-09T05:19:38.688Z,105
2018-05-09T05:20:19.214Z,105
2018-05-09T05:20:59.754Z,105
2018-05-09T05:21:40.263Z,105
2018-05-09T05:22:20.782Z,105
2018-05-09T05:23:01.289Z,110
2018-05-09T05:23:41.777Z,110
2018-05-09T05:24:22.314Z,110
2018-05-09T05:25:02.818Z,110
2018-05-09T05:25:43.321Z,110
2018-05-09T05:26:23.844Z,110
2018-05-09T05:27:04.373Z,110
2018-05-09T05:27:44.867Z,110
2018-05-09T05:28:25.373Z,115
2018-05-09T05:29:05.904Z,115
2018-05-09T05:29:46.461Z,115
2018-05-09T05:30:26.950Z,115
2018-05-09T05:31:07.471Z,115
2018-05-09T05:31:47.988Z,115
2018-05-09T05:32:28.510Z,115
2018-05-09T05:33:08.987Z,115
2018-05-09T05:33:49.487Z,115
2018-05-09T05:34:30.027Z,120
2018-05-09T05:35:10.526Z,120
2018-05-09T05:35:51.033Z,120
2018-05-09T05:36:31.632Z,120
2018-05-09T05:37:12.167Z,125
2018-05-09T05:37:52.659Z,120
2018-05-09T05:38:33.359Z,120
2018-05-09T05:39:13.834Z,125
2018-05-09T05:39:54.387Z,125
2018-05-09T05:40:34.909Z,130
2018-05-09T05:41:15.383Z,135
2018-05-09T05:41:55.920Z,150
2018-05-09T05:42:36.491Z,160
2018-05-09T05:43:17.010Z,175
2018-05-09T05:43:57.505Z,185
2018-05-09T05:44:38.025Z,195
2018-05-09T05:45:18.639Z,200
2018-05-09T05:45:59.061Z,205
2018-05-09T05:46:39.596Z,205
2018-05-09T05:47:20.170Z,205
2018-05-09T05:48:00.661Z,205
2018-05-09T05:48:41.195Z,200
2018-05-09T05:49:21.783Z,200
2018-05-09T05:50:02.311Z,195
2018-05-09T05:50:42.822Z,195
2018-05-09T05:51:23.376Z,190
2018-05-09T05:52:03.856Z,185
2018-05-09T05:52:44.370Z,185
2018-05-09T05:53:24.864Z,180
2018-05-09T05:54:05.402Z,180
2018-05-09T05:54:45.913Z,180
2018-05-09T05:55:26.459Z,180
2018-05-09T05:56:07.055Z,185
2018-05-09T05:56:47.524Z,185
2018-05-09T05:57:28.077Z,190
2018-05-09T05:58:08.586Z,195
2018-05-09T06:00:42.269Z,210
2018-05-09T06:01:22.775Z,215
2018-05-09T06:02:03.314Z,215
2018-05-09T06:02:43.827Z,220
2018-05-09T06:03:24.393Z,220
2018-05-09T06:04:04.925Z,220
2018-05-09T06:04:45.428Z,225
2018-05-09T06:05:25.955Z,225
2018-05-09T06:06:06.484Z,225
2018-05-09T06:06:47.000Z,225
2018-05-09T06:07:27.545Z,225
2018-05-09T06:08:07.992Z,225
2018-05-09T06:08:49.313Z,225
2018-05-09T06:09:29.795Z,220
2018-05-09T06:10:10.500Z,220
2018-05-09T06:10:51.126Z,220
2018-05-09T06:11:31.633Z,220
2018-05-09T06:12:12.110Z,215
2018-05-09T06:12:52.746Z,210
2018-05-09T06:13:33.244Z,205
2018-05-09T06:14:13.800Z,205
2018-05-09T06:14:54.264Z,200
2018-05-09T06:15:34.775Z,200
2018-05-09T06:16:15.288Z,195
2018-05-09T06:16:55.783Z,195
2018-05-09T06:17:36.265Z,195
2018-05-09T06:18:16.767Z,200
2018-05-09T06:18:57.260Z,200
2018-05-09T06:19:37.773Z,205
2018-05-09T06:20:18.300Z,205
2018-05-09T06:20:58.828Z,205
2018-05-09T06:21:39.355Z,205
2018-05-09T06:22:19.846Z,210
2018-05-09T06:23:00.369Z,210
2018-05-09T06:23:40.857Z,215
2018-05-09T06:24:21.432Z,215
2018-05-09T06:25:01.909Z,220
2018-05-09T06:25:42.479Z,195
2018-05-09T06:26:22.940Z,185
2018-05-09T06:27:03.470Z,190
2018-05-09T06:27:43.953Z,195
2018-05-09T06:28:24.437Z,205
2018-05-09T06:29:04.930Z,215
2018-05-09T06:29:45.426Z,220
2018-05-09T06:30:25.974Z,220
2018-05-09T06:31:06.453Z,220
2018-05-09T06:31:46.945Z,215
2018-05-09T06:32:27.477Z,210
2018-05-09T06:33:07.979Z,200
2018-05-09T06:33:48.446Z,200
2018-05-09T06:34:29.036Z,200
2018-05-09T06:35:09.494Z,205
2018-05-09T06:35:50.084Z,200
2018-05-09T06:36:30.680Z,200
2018-05-09T06:37:11.179Z,205
2018-05-09T06:37:51.694Z,210
2018-05-09T06:38:32.242Z,205
2018-05-09T06:39:12.686Z,215
2018-05-09T06:39:53.187Z,215
2018-05-09T06:40:33.650Z,220
2018-05-09T06:41:14.157Z,225
2018-05-09T06:41:54.728Z,225
2018-05-09T06:42:35.204Z,215
2018-05-09T06:43:15.712Z,205
2018-05-09T06:43:56.202Z,220
2018-05-09T06:44:36.761Z,220
2018-05-09T06:45:17.210Z,215
2018-05-09T06:45:57.709Z,215
2018-05-09T06:46:38.152Z,220
2018-05-09T06:47:18.664Z,210
2018-05-09T06:47:59.193Z,210
2018-05-09T06:48:39.683Z,205
2018-05-09T06:49:20.138Z,200
2018-05-09T06:50:00.707Z,200
2018-05-09T06:50:41.183Z,200
2018-05-09T06:51:21.656Z,195
2018-05-09T06:52:02.265Z,190
2018-05-09T06:52:42.773Z,190
2018-05-09T06:53:23.312Z,195
2018-05-09T06:54:03.760Z,200
2018-05-09T06:54:44.470Z,205
2018-05-09T06:55:25.083Z,210
2018-05-09T06:56:05.550Z,210
2018-05-09T06:56:46.091Z,210
2018-05-09T06:57:26.594Z,210
2018-05-09T06:58:07.066Z,205
2018-05-09T06:58:47.571Z,200
2018-05-09T06:59:28.056Z,200
2018-05-09T07:00:08.548Z,195
2018-05-09T07:00:49.064Z,190
2018-05-09T07:01:29.580Z,190
2018-05-09T07:02:10.318Z,190
2018-05-09T07:02:50.811Z,190
2018-05-09T07:03:31.308Z,195
2018-05-09T07:04:11.811Z,205
2018-05-09T07:04:52.318Z,200
2018-05-09T07:05:32.810Z,200
2018-05-09T07:06:13.454Z,205
2018-05-09T07:06:53.824Z,200
2018-05-09T07:07:34.323Z,195
2018-05-09T07:08:14.875Z,195
2018-05-09T07:08:55.373Z,195
2018-05-09T07:09:35.883Z,205
2018-05-09T07:10:16.385Z,210
2018-05-09T07:10:56.861Z,215
2018-05-09T07:11:37.385Z,205
2018-05-09T07:12:17.887Z,215
2018-05-09T07:12:58.393Z,220
2018-05-09T07:13:38.874Z,210
2018-05-09T07:14:19.394Z,185
2018-05-09T07:14:59.929Z,200
2018-05-09T07:15:40.529Z,205
2018-05-09T07:16:21.013Z,215
2018-05-09T07:17:01.514Z,215
2018-05-09T07:17:42.005Z,215
2018-05-09T07:18:22.514Z,215
2018-05-09T07:19:03.075Z,220
2018-05-09T07:19:43.579Z,220
2018-05-09T07:20:24.081Z,230
2018-05-09T07:21:04.591Z,235
2018-05-09T07:21:45.079Z,245
2018-05-09T07:22:25.715Z,240
2018-05-09T07:23:06.432Z,240
2018-05-09T07:23:46.819Z,240
2018-05-09T07:24:27.315Z,245
2018-05-09T07:25:07.802Z,250
2018-05-09T07:25:49.620Z,240
2018-05-09T07:26:30.528Z,245
2018-05-09T07:27:11.053Z,225
2018-05-09T07:27:51.527Z,225
2018-05-09T07:28:31.995Z,205
2018-05-09T07:29:12.527Z,170
2018-05-09T07:29:53.024Z,160
2018-05-09T07:30:33.542Z,180
2018-05-09T07:31:14.010Z,190
2018-05-09T07:31:54.588Z,195
2018-05-09T07:32:35.020Z,185
2018-05-09T07:33:15.500Z,180
2018-05-09T07:33:56.005Z,185
2018-05-09T07:34:36.542Z,180
2018-05-09T07:35:17.043Z,175
2018-05-09T07:35:57.502Z,185
2018-05-09T07:36:37.960Z,190
2018-05-09T07:37:18.637Z,190
2018-05-09T07:37:59.159Z,200
2018-05-09T07:38:39.683Z,200
2018-05-09T07:39:20.175Z,210
2018-05-09T07:40:00.657Z,220
2018-05-09T07:40:41.162Z,225
2018-05-09T07:41:21.637Z,215
2018-05-09T07:42:02.205Z,200
2018-05-09T07:42:42.661Z,215
2018-05-09T07:43:23.148Z,215
2018-05-09T07:44:03.674Z,205
2018-05-09T07:44:44.183Z,215
2018-05-09T07:45:24.667Z,190
2018-05-09T07:46:05.204Z,215
2018-05-09T07:46:45.726Z,210
2018-05-09T07:47:26.139Z,205
2018-05-09T07:48:06.641Z,205
2018-05-09T07:48:47.175Z,200
2018-05-09T07:49:27.691Z,200
2018-05-09T07:50:08.188Z,195
2018-05-09T07:50:48.827Z,195
2018-05-09T07:51:29.346Z,190
2018-05-09T07:52:09.884Z,185
2018-05-09T07:52:50.382Z,185
2018-05-09T07:53:30.883Z,175
2018-05-09T07:54:11.363Z,170
2018-05-09T07:54:51.930Z,175
2018-05-09T07:55:32.474Z,170
2018-05-09T07:56:12.908Z,155
2018-05-09T07:56:53.377Z,150
2018-05-09T07:57:33.903Z,155
2018-05-09T07:58:14.411Z,155
2018-05-09T07:58:54.878Z,160
2018-05-09T07:59:35.365Z,155
2018-05-09T08:00:15.881Z,155
2018-05-09T08:00:56.514Z,150
2018-05-09T08:01:36.991Z,145
2018-05-09T08:02:17.480Z,155
2018-05-09T08:02:57.988Z,160
2018-05-09T08:03:38.469Z,160
2018-05-09T08:04:19.014Z,165
2018-05-09T08:04:59.504Z,170
2018-05-09T08:05:39.999Z,180
2018-05-09T08:06:20.542Z,180
2018-05-09T08:07:01.030Z,180
2018-05-09T08:07:41.728Z,165
2018-05-09T08:08:22.312Z,170
2018-05-09T08:09:02.775Z,175
2018-05-09T08:09:43.253Z,165
2018-05-09T08:10:23.809Z,160
2018-05-09T08:11:04.276Z,160
2018-05-09T08:11:44.787Z,155
2018-05-09T08:12:25.261Z,155
2018-05-09T08:13:05.728Z,165
2018-05-09T08:13:46.249Z,145
2018-05-09T08:14:26.742Z,145
2018-05-09T08:15:07.423Z,140
2018-05-09T08:15:47.966Z,140
2018-05-09T08:16:28.464Z,140
2018-05-09T08:17:08.964Z,140
2018-05-09T08:17:49.418Z,140
2018-05-09T08:18:29.961Z,140
2018-05-09T08:19:10.455Z,140
2018-05-09T08:19:50.944Z,140
2018-05-09T08:20:31.523Z,145
2018-05-09T08:21:12.003Z,150
2018-05-09T08:21:52.494Z,150
2018-05-09T08:22:33.112Z,150
2018-05-09T08:23:13.680Z,155
2018-05-09T08:23:54.237Z,170
2018-05-09T08:24:34.632Z,175
2018-05-09T08:25:15.186Z,175
2018-05-09T08:25:55.672Z,170
2018-05-09T08:26:36.142Z,175
2018-05-09T08:27:16.728Z,170
2018-05-09T08:27:57.275Z,170
2018-05-09T08:28:37.828Z,170
2018-05-09T08:29:18.434Z,170
2018-05-09T08:29:58.921Z,165
2018-05-09T08:30:39.560Z,160
2018-05-09T08:31:19.964Z,150
2018-05-09T08:32:00.434Z,165
2018-05-09T08:32:40.942Z,160
2018-05-09T08:33:21.465Z,160
2018-05-09T08:34:01.964Z,165
2018-05-09T08:34:42.641Z,160
2018-05-09T08:35:23.100Z,150
2018-05-09T08:36:03.605Z,155
2018-05-09T08:36:44.208Z,145
2018-05-09T08:37:24.562Z,145
2018-05-09T08:38:05.071Z,160
2018-05-09T08:38:45.560Z,155
2018-05-09T08:39:26.038Z,145
2018-05-09T08:40:06.566Z,145
2018-05-09T08:40:47.067Z,145
2018-05-09T08:41:27.542Z,145
2018-05-09T08:42:08.026Z,150
2018-05-09T08:42:48.555Z,145
2018-05-09T08:43:29.090Z,155
2018-05-09T08:44:09.529Z,160
2018-05-09T08:44:50.025Z,155
2018-05-09T08:45:30.535Z,155
2018-05-09T08:46:11.022Z,155
2018-05-09T08:46:51.528Z,150
2018-05-09T08:47:32.139Z,150
2018-05-09T08:48:12.579Z,150
2018-05-09T08:48:53.083Z,155
2018-05-09T08:49:33.670Z,150
2018-05-09T08:50:14.169Z,160
2018-05-09T08:50:54.726Z,160
2018-05-09T08:51:35.233Z,160
2018-05-09T08:52:15.712Z,160
2018-05-09T08:52:56.227Z,160
2018-05-09T08:53:36.792Z,160
2018-05-09T08:54:17.292Z,160
2018-05-09T08:54:57.789Z,160
2018-05-09T08:55:38.271Z,165
2018-05-09T08:56:18.758Z,165
2018-05-09T08:56:59.265Z,165
2018-05-09T08:57:39.786Z,165
2018-05-09T08:58:20.302Z,165
2018-05-09T08:59:00.817Z,165
2018-05-09T08:59:41.290Z,165
2018-05-09T09:00:21.921Z,165
2018-05-09T09:01:02.449Z,165
2018-05-09T09:01:42.952Z,165
2018-05-09T09:02:24.582Z,160
2018-05-09T09:03:05.341Z,160
2018-05-09T09:03:45.830Z,160
2018-05-09T09:04:26.412Z,155
2018-05-09T09:05:06.821Z,160
2018-05-09T09:05:47.333Z,150
2018-05-09T09:06:27.889Z,150
2018-05-09T09:07:08.370Z,150
2018-05-09T09:07:48.823Z,145
2018-05-09T09:08:29.395Z,140
2018-05-09T09:09:09.900Z,140
2018-05-09T09:09:50.373Z,140
2018-05-09T09:10:30.879Z,135
2018-05-09T09:11:11.394Z,135
2018-05-09T09:11:51.932Z,135
2018-05-09T09:12:32.396Z,135
2018-05-09T09:13:12.895Z,135
2018-05-09T09:13:53.486Z,130
2018-05-09T09:14:34.067Z,130
2018-05-09T09:15:14.556Z,130
2018-05-09T09:15:55.008Z,130
2018-05-09T09:16:35.513Z,130
2018-05-09T09:17:15.997Z,130
2018-05-09T09:17:56.459Z,130
2018-05-09T09:18:37.238Z,130
2018-05-09T09:19:17.695Z,130
2018-05-09T09:19:58.394Z,130
2018-05-09T09:20:38.975Z,130
2018-05-09T09:21:19.450Z,135
2018-05-09T09:22:00.001Z,135
2018-05-09T09:22:40.389Z,135
2018-05-09T09:23:21.132Z,135
2018-05-09T09:24:01.669Z,130
2018-05-09T09:24:42.316Z,130
2018-05-09T09:25:22.801Z,135
2018-05-09T09:26:03.325Z,135
2018-05-09T09:26:43.910Z,135
2018-05-09T09:27:24.415Z,140
2018-05-09T09:28:04.897Z,140
2018-05-09T09:28:45.350Z,140
2018-05-09T09:29:25.852Z,145
2018-05-09T09:30:06.325Z,145
2018-05-09T09:30:46.871Z,145
2018-05-09T09:31:27.350Z,145
2018-05-09T09:32:07.823Z,145
2018-05-09T09:32:48.320Z,140
2018-05-09T09:33:28.836Z,135
2018-05-09T09:34:09.297Z,140
2018-05-09T09:34:49.800Z,140
2018-05-09T09:35:31.177Z,140
2018-05-09T09:36:11.688Z,145
2018-05-09T09:36:52.223Z,140
2018-05-09T09:37:32.718Z,140
2018-05-09T09:38:13.167Z,140